sensor_id;sensor_type;location;lat;lon;timestamp;temperature;humidity
69895;DHT22;57172;52.034;5.090;2023-03-23T00:01:25;12.60;81.60
69895;DHT22;57172;52.034;5.090;2023-03-23T00:03:53;12.60;81.60
69895;DHT22;57172;52.034;5.090;2023-03-23T00:06:26;12.60;81.70
69895;DHT22;57172;52.034;5.090;2023-03-23T00:08:54;12.60;81.60
69895;DHT22;57172;52.034;5.090;2023-03-23T00:11:27;12.60;81.30
69895;DHT22;57172;52.034;5.090;2023-03-23T00:13:55;12.60;81.60
69895;DHT22;57172;52.034;5.090;2023-03-23T00:16:24;12.70;81.30
69895;DHT22;57172;52.034;5.090;2023-03-23T00:19:17;12.70;80.40
69895;DHT22;57172;52.034;5.090;2023-03-23T00:21:45;12.70;81.10
69895;DHT22;57172;52.034;5.090;2023-03-23T00:24:11;12.70;81.40
69895;DHT22;57172;52.034;5.090;2023-03-23T00:26:41;12.80;81.90
69895;DHT22;57172;52.034;5.090;2023-03-23T00:29:17;12.80;81.20
69895;DHT22;57172;52.034;5.090;2023-03-23T00:31:45;12.80;80.70
69895;DHT22;57172;52.034;5.090;2023-03-23T00:34:16;12.70;80.80
69895;DHT22;57172;52.034;5.090;2023-03-23T00:36:51;12.80;80.30
69895;DHT22;57172;52.034;5.090;2023-03-23T00:39:19;12.80;79.60
69895;DHT22;57172;52.034;5.090;2023-03-23T00:41:47;12.80;79.70
69895;DHT22;57172;52.034;5.090;2023-03-23T00:44:13;12.80;79.10
69895;DHT22;57172;52.034;5.090;2023-03-23T00:46:46;12.80;79.90
69895;DHT22;57172;52.034;5.090;2023-03-23T00:49:19;12.80;80.00
69895;DHT22;57172;52.034;5.090;2023-03-23T00:51:50;12.90;80.50
69895;DHT22;57172;52.034;5.090;2023-03-23T00:54:16;12.90;79.90
69895;DHT22;57172;52.034;5.090;2023-03-23T00:56:42;12.90;80.10
69895;DHT22;57172;52.034;5.090;2023-03-23T00:59:08;12.90;80.10
69895;DHT22;57172;52.034;5.090;2023-03-23T01:01:34;12.90;79.50
69895;DHT22;57172;52.034;5.090;2023-03-23T01:04:02;12.90;80.10
69895;DHT22;57172;52.034;5.090;2023-03-23T01:06:31;12.90;80.20
69895;DHT22;57172;52.034;5.090;2023-03-23T01:08:58;12.90;79.40
69895;DHT22;57172;52.034;5.090;2023-03-23T01:11:25;12.90;79.00
69895;DHT22;57172;52.034;5.090;2023-03-23T01:13:52;12.90;79.70
69895;DHT22;57172;52.034;5.090;2023-03-23T01:16:19;12.90;79.60
69895;DHT22;57172;52.034;5.090;2023-03-23T01:18:46;12.90;80.50
69895;DHT22;57172;52.034;5.090;2023-03-23T01:21:14;12.90;80.50
69895;DHT22;57172;52.034;5.090;2023-03-23T01:23:42;12.90;79.50
69895;DHT22;57172;52.034;5.090;2023-03-23T01:26:19;12.90;79.50
69895;DHT22;57172;52.034;5.090;2023-03-23T01:28:46;12.90;79.90
69895;DHT22;57172;52.034;5.090;2023-03-23T01:31:16;12.90;79.50
69895;DHT22;57172;52.034;5.090;2023-03-23T01:33:42;12.90;79.10
69895;DHT22;57172;52.034;5.090;2023-03-23T01:36:15;12.80;78.90
69895;DHT22;57172;52.034;5.090;2023-03-23T01:38:44;12.80;79.30
69895;DHT22;57172;52.034;5.090;2023-03-23T01:41:11;12.80;78.80
69895;DHT22;57172;52.034;5.090;2023-03-23T01:46:30;12.90;79.50
69895;DHT22;57172;52.034;5.090;2023-03-23T01:48:59;12.90;79.00
69895;DHT22;57172;52.034;5.090;2023-03-23T01:51:32;12.90;78.40
69895;DHT22;57172;52.034;5.090;2023-03-23T01:54:01;12.90;78.90
69895;DHT22;57172;52.034;5.090;2023-03-23T01:56:43;12.90;78.40
69895;DHT22;57172;52.034;5.090;2023-03-23T01:59:11;12.90;78.80
69895;DHT22;57172;52.034;5.090;2023-03-23T02:01:41;12.90;79.00
69895;DHT22;57172;52.034;5.090;2023-03-23T02:04:12;12.90;78.20
69895;DHT22;57172;52.034;5.090;2023-03-23T02:06:39;12.90;79.50
69895;DHT22;57172;52.034;5.090;2023-03-23T02:09:14;13.00;78.00
69895;DHT22;57172;52.034;5.090;2023-03-23T02:11:47;13.00;78.50
69895;DHT22;57172;52.034;5.090;2023-03-23T02:14:16;13.00;78.50
69895;DHT22;57172;52.034;5.090;2023-03-23T02:26:03;13.00;78.50
69895;DHT22;57172;52.034;5.090;2023-03-23T02:34:57;13.10;78.70
69895;DHT22;57172;52.034;5.090;2023-03-23T02:37:32;13.10;78.50
69895;DHT22;57172;52.034;5.090;2023-03-23T02:40:12;13.10;77.90
69895;DHT22;57172;52.034;5.090;2023-03-23T02:42:42;13.00;78.50
69895;DHT22;57172;52.034;5.090;2023-03-23T02:45:10;13.10;78.10
69895;DHT22;57172;52.034;5.090;2023-03-23T02:47:38;13.10;77.90
69895;DHT22;57172;52.034;5.090;2023-03-23T02:50:09;13.10;77.80
69895;DHT22;57172;52.034;5.090;2023-03-23T02:52:37;13.10;77.80
69895;DHT22;57172;52.034;5.090;2023-03-23T02:55:04;13.20;77.80
69895;DHT22;57172;52.034;5.090;2023-03-23T02:57:31;13.10;77.70
69895;DHT22;57172;52.034;5.090;2023-03-23T02:59:59;13.20;78.00
69895;DHT22;57172;52.034;5.090;2023-03-23T03:02:28;13.20;77.50
69895;DHT22;57172;52.034;5.090;2023-03-23T03:10:33;13.20;76.70
69895;DHT22;57172;52.034;5.090;2023-03-23T03:18:56;13.20;77.20
69895;DHT22;57172;52.034;5.090;2023-03-23T03:21:30;13.20;76.10
69895;DHT22;57172;52.034;5.090;2023-03-23T03:24:01;13.20;76.90
69895;DHT22;57172;52.034;5.090;2023-03-23T03:26:30;13.20;77.00
69895;DHT22;57172;52.034;5.090;2023-03-23T03:29:11;13.20;76.70
69895;DHT22;57172;52.034;5.090;2023-03-23T03:31:44;13.20;76.50
69895;DHT22;57172;52.034;5.090;2023-03-23T03:34:13;13.20;76.50
69895;DHT22;57172;52.034;5.090;2023-03-23T03:36:45;13.30;76.70
69895;DHT22;57172;52.034;5.090;2023-03-23T03:39:13;13.30;76.60
69895;DHT22;57172;52.034;5.090;2023-03-23T03:41:42;13.30;77.60
69895;DHT22;57172;52.034;5.090;2023-03-23T03:44:09;13.30;76.50
69895;DHT22;57172;52.034;5.090;2023-03-23T03:46:36;13.30;76.80
69895;DHT22;57172;52.034;5.090;2023-03-23T03:49:05;13.30;76.10
69895;DHT22;57172;52.034;5.090;2023-03-23T03:51:33;13.30;76.40
69895;DHT22;57172;52.034;5.090;2023-03-23T03:54:00;13.30;76.70
69895;DHT22;57172;52.034;5.090;2023-03-23T03:56:27;13.30;75.80
69895;DHT22;57172;52.034;5.090;2023-03-23T03:59:05;13.30;76.00
69895;DHT22;57172;52.034;5.090;2023-03-23T04:01:52;13.30;75.80
69895;DHT22;57172;52.034;5.090;2023-03-23T04:04:21;13.30;76.20
69895;DHT22;57172;52.034;5.090;2023-03-23T04:06:48;13.30;75.60
69895;DHT22;57172;52.034;5.090;2023-03-23T04:09:15;13.30;75.80
69895;DHT22;57172;52.034;5.090;2023-03-23T04:11:41;13.30;75.90
69895;DHT22;57172;52.034;5.090;2023-03-23T04:14:33;13.30;74.60
69895;DHT22;57172;52.034;5.090;2023-03-23T04:16:59;13.30;75.20
69895;DHT22;57172;52.034;5.090;2023-03-23T04:19:25;13.30;74.70
69895;DHT22;57172;52.034;5.090;2023-03-23T04:21:54;13.30;74.50
69895;DHT22;57172;52.034;5.090;2023-03-23T04:24:21;13.30;75.10
69895;DHT22;57172;52.034;5.090;2023-03-23T04:26:50;13.30;74.90
69895;DHT22;57172;52.034;5.090;2023-03-23T04:29:24;13.30;74.20
69895;DHT22;57172;52.034;5.090;2023-03-23T04:32:19;13.30;75.00
69895;DHT22;57172;52.034;5.090;2023-03-23T04:34:50;13.30;74.60
69895;DHT22;57172;52.034;5.090;2023-03-23T04:37:17;13.20;73.80
69895;DHT22;57172;52.034;5.090;2023-03-23T04:39:43;13.20;75.00
69895;DHT22;57172;52.034;5.090;2023-03-23T04:42:13;13.20;74.10
69895;DHT22;57172;52.034;5.090;2023-03-23T04:44:58;13.20;74.60
69895;DHT22;57172;52.034;5.090;2023-03-23T04:47:32;13.20;74.20
69895;DHT22;57172;52.034;5.090;2023-03-23T04:50:01;13.20;74.60
69895;DHT22;57172;52.034;5.090;2023-03-23T04:52:37;13.20;74.30
69895;DHT22;57172;52.034;5.090;2023-03-23T04:55:06;13.10;74.50
69895;DHT22;57172;52.034;5.090;2023-03-23T04:57:34;13.10;75.50
69895;DHT22;57172;52.034;5.090;2023-03-23T05:00:19;13.00;75.80
69895;DHT22;57172;52.034;5.090;2023-03-23T05:02:50;12.90;76.20
69895;DHT22;57172;52.034;5.090;2023-03-23T05:05:19;12.80;76.50
69895;DHT22;57172;52.034;5.090;2023-03-23T05:07:46;12.70;76.30
69895;DHT22;57172;52.034;5.090;2023-03-23T05:10:15;12.60;76.50
69895;DHT22;57172;52.034;5.090;2023-03-23T05:12:42;12.60;77.20
69895;DHT22;57172;52.034;5.090;2023-03-23T05:15:11;12.60;77.60
69895;DHT22;57172;52.034;5.090;2023-03-23T05:17:37;12.60;78.40
69895;DHT22;57172;52.034;5.090;2023-03-23T05:20:13;12.60;78.10
69895;DHT22;57172;52.034;5.090;2023-03-23T05:22:44;12.60;77.90
69895;DHT22;57172;52.034;5.090;2023-03-23T05:25:14;12.40;78.20
69895;DHT22;57172;52.034;5.090;2023-03-23T05:27:46;12.20;79.50
69895;DHT22;57172;52.034;5.090;2023-03-23T05:30:21;12.10;80.20
69895;DHT22;57172;52.034;5.090;2023-03-23T05:32:48;12.00;80.90
69895;DHT22;57172;52.034;5.090;2023-03-23T05:35:41;11.90;81.70
69895;DHT22;57172;52.034;5.090;2023-03-23T05:38:07;11.80;82.00
69895;DHT22;57172;52.034;5.090;2023-03-23T05:40:33;11.80;82.50
69895;DHT22;57172;52.034;5.090;2023-03-23T05:43:07;11.80;82.50
69895;DHT22;57172;52.034;5.090;2023-03-23T05:45:47;11.80;82.60
69895;DHT22;57172;52.034;5.090;2023-03-23T05:48:13;11.80;82.80
69895;DHT22;57172;52.034;5.090;2023-03-23T05:50:39;11.80;82.60
69895;DHT22;57172;52.034;5.090;2023-03-23T05:53:05;11.70;82.90
69895;DHT22;57172;52.034;5.090;2023-03-23T05:55:33;11.60;83.40
69895;DHT22;57172;52.034;5.090;2023-03-23T05:58:08;11.40;84.00
69895;DHT22;57172;52.034;5.090;2023-03-23T06:00:37;11.40;84.40
69895;DHT22;57172;52.034;5.090;2023-03-23T06:03:14;11.40;84.90
69895;DHT22;57172;52.034;5.090;2023-03-23T06:05:50;11.40;85.20
69895;DHT22;57172;52.034;5.090;2023-03-23T06:08:19;11.40;85.30
69895;DHT22;57172;52.034;5.090;2023-03-23T06:10:45;11.40;85.60
69895;DHT22;57172;52.034;5.090;2023-03-23T06:13:13;11.40;85.90
69895;DHT22;57172;52.034;5.090;2023-03-23T06:15:43;11.40;86.00
69895;DHT22;57172;52.034;5.090;2023-03-23T06:18:22;11.40;85.70
69895;DHT22;57172;52.034;5.090;2023-03-23T06:21:07;11.50;85.40
69895;DHT22;57172;52.034;5.090;2023-03-23T06:23:59;11.50;85.20
69895;DHT22;57172;52.034;5.090;2023-03-23T06:26:47;11.50;85.50
69895;DHT22;57172;52.034;5.090;2023-03-23T06:29:17;11.50;85.40
69895;DHT22;57172;52.034;5.090;2023-03-23T06:31:51;11.50;85.20
69895;DHT22;57172;52.034;5.090;2023-03-23T06:34:18;11.60;85.40
69895;DHT22;57172;52.034;5.090;2023-03-23T06:37:13;11.60;85.00
69895;DHT22;57172;52.034;5.090;2023-03-23T06:40:10;11.60;85.00
69895;DHT22;57172;52.034;5.090;2023-03-23T06:42:41;11.60;84.80
69895;DHT22;57172;52.034;5.090;2023-03-23T06:45:25;11.60;84.60
69895;DHT22;57172;52.034;5.090;2023-03-23T06:48:07;11.50;85.00
69895;DHT22;57172;52.034;5.090;2023-03-23T06:50:33;11.40;85.60
69895;DHT22;57172;52.034;5.090;2023-03-23T06:53:00;11.30;85.90
69895;DHT22;57172;52.034;5.090;2023-03-23T06:55:26;11.30;86.30
69895;DHT22;57172;52.034;5.090;2023-03-23T06:57:53;11.30;86.00
69895;DHT22;57172;52.034;5.090;2023-03-23T07:00:19;11.30;86.30
69895;DHT22;57172;52.034;5.090;2023-03-23T07:02:45;11.30;86.20
69895;DHT22;57172;52.034;5.090;2023-03-23T07:05:12;11.40;86.20
69895;DHT22;57172;52.034;5.090;2023-03-23T07:07:40;11.40;86.00
69895;DHT22;57172;52.034;5.090;2023-03-23T07:10:24;11.40;85.80
69895;DHT22;57172;52.034;5.090;2023-03-23T07:12:50;11.40;85.50
69895;DHT22;57172;52.034;5.090;2023-03-23T07:15:16;11.40;85.20
69895;DHT22;57172;52.034;5.090;2023-03-23T07:17:47;11.50;85.10
69895;DHT22;57172;52.034;5.090;2023-03-23T07:20:22;11.50;85.10
69895;DHT22;57172;52.034;5.090;2023-03-23T07:22:48;11.40;85.20
69895;DHT22;57172;52.034;5.090;2023-03-23T07:25:23;11.50;85.50
69895;DHT22;57172;52.034;5.090;2023-03-23T07:27:52;11.40;85.20
69895;DHT22;57172;52.034;5.090;2023-03-23T07:30:18;11.50;85.60
69895;DHT22;57172;52.034;5.090;2023-03-23T07:32:44;11.50;85.40
69895;DHT22;57172;52.034;5.090;2023-03-23T07:35:10;11.60;85.60
69895;DHT22;57172;52.034;5.090;2023-03-23T07:37:48;11.60;85.40
69895;DHT22;57172;52.034;5.090;2023-03-23T07:40:16;11.70;84.80
69895;DHT22;57172;52.034;5.090;2023-03-23T07:42:52;11.70;84.40
69895;DHT22;57172;52.034;5.090;2023-03-23T07:45:27;11.80;84.50
69895;DHT22;57172;52.034;5.090;2023-03-23T07:47:54;11.80;84.70
69895;DHT22;57172;52.034;5.090;2023-03-23T07:50:20;11.80;84.50
69895;DHT22;57172;52.034;5.090;2023-03-23T07:52:56;11.90;85.10
69895;DHT22;57172;52.034;5.090;2023-03-23T07:55:24;11.90;84.00
69895;DHT22;57172;52.034;5.090;2023-03-23T07:58:13;12.00;84.10
69895;DHT22;57172;52.034;5.090;2023-03-23T08:00:48;12.10;84.20
69895;DHT22;57172;52.034;5.090;2023-03-23T08:03:16;12.00;83.50
69895;DHT22;57172;52.034;5.090;2023-03-23T08:06:00;12.10;83.60
69895;DHT22;57172;52.034;5.090;2023-03-23T08:08:44;12.10;83.00
69895;DHT22;57172;52.034;5.090;2023-03-23T08:11:29;12.10;83.40
69895;DHT22;57172;52.034;5.090;2023-03-23T08:14:10;12.10;83.50
69895;DHT22;57172;52.034;5.090;2023-03-23T08:16:52;12.30;83.50
69895;DHT22;57172;52.034;5.090;2023-03-23T08:19:45;12.40;83.50
69895;DHT22;57172;52.034;5.090;2023-03-23T08:22:45;12.60;82.80
69895;DHT22;57172;52.034;5.090;2023-03-23T08:25:37;12.70;82.00
69895;DHT22;57172;52.034;5.090;2023-03-23T08:28:18;12.80;83.00
69895;DHT22;57172;52.034;5.090;2023-03-23T08:31:11;12.90;82.40
69895;DHT22;57172;52.034;5.090;2023-03-23T08:33:51;13.00;81.50
69895;DHT22;57172;52.034;5.090;2023-03-23T08:36:23;12.90;81.20
69895;DHT22;57172;52.034;5.090;2023-03-23T08:39:08;12.90;82.10
69895;DHT22;57172;52.034;5.090;2023-03-23T08:41:57;12.80;81.90
69895;DHT22;57172;52.034;5.090;2023-03-23T08:44:41;12.90;81.70
69895;DHT22;57172;52.034;5.090;2023-03-23T08:47:18;12.90;80.80
69895;DHT22;57172;52.034;5.090;2023-03-23T08:50:10;12.90;81.70
69895;DHT22;57172;52.034;5.090;2023-03-23T08:52:55;13.20;83.50
69895;DHT22;57172;52.034;5.090;2023-03-23T08:55:51;13.60;82.00
69895;DHT22;57172;52.034;5.090;2023-03-23T08:58:20;13.90;79.20
69895;DHT22;57172;52.034;5.090;2023-03-23T09:00:45;13.90;78.40
69895;DHT22;57172;52.034;5.090;2023-03-23T09:03:34;14.10;77.50
69895;DHT22;57172;52.034;5.090;2023-03-23T09:06:14;14.20;77.60
69895;DHT22;57172;52.034;5.090;2023-03-23T09:08:44;14.30;76.70
69895;DHT22;57172;52.034;5.090;2023-03-23T09:11:10;14.50;78.40
69895;DHT22;57172;52.034;5.090;2023-03-23T09:13:37;14.60;77.30
69895;DHT22;57172;52.034;5.090;2023-03-23T09:16:05;14.60;76.50
69895;DHT22;57172;52.034;5.090;2023-03-23T09:18:31;14.60;77.30
69895;DHT22;57172;52.034;5.090;2023-03-23T09:21:01;14.90;76.50
69895;DHT22;57172;52.034;5.090;2023-03-23T09:23:28;15.00;75.40
69895;DHT22;57172;52.034;5.090;2023-03-23T09:25:54;15.00;74.70
69895;DHT22;57172;52.034;5.090;2023-03-23T09:28:20;15.10;76.10
69895;DHT22;57172;52.034;5.090;2023-03-23T09:30:47;15.40;75.90
69895;DHT22;57172;52.034;5.090;2023-03-23T09:33:13;15.80;78.90
69895;DHT22;57172;52.034;5.090;2023-03-23T09:35:39;15.90;73.10
69895;DHT22;57172;52.034;5.090;2023-03-23T09:38:08;15.80;71.70
69895;DHT22;57172;52.034;5.090;2023-03-23T09:40:55;15.60;71.40
69895;DHT22;57172;52.034;5.090;2023-03-23T09:43:59;15.50;71.30
69895;DHT22;57172;52.034;5.090;2023-03-23T09:46:40;15.30;70.70
69895;DHT22;57172;52.034;5.090;2023-03-23T09:49:15;15.40;75.30
69895;DHT22;57172;52.034;5.090;2023-03-23T09:52:05;15.70;72.50
69895;DHT22;57172;52.034;5.090;2023-03-23T09:54:37;15.90;71.80
69895;DHT22;57172;52.034;5.090;2023-03-23T09:57:10;16.00;72.20
69895;DHT22;57172;52.034;5.090;2023-03-23T09:59:54;16.10;69.50
69895;DHT22;57172;52.034;5.090;2023-03-23T10:02:30;16.10;68.20
69895;DHT22;57172;52.034;5.090;2023-03-23T10:05:23;16.10;68.60
69895;DHT22;57172;52.034;5.090;2023-03-23T10:07:50;15.90;70.40
69895;DHT22;57172;52.034;5.090;2023-03-23T10:10:16;16.20;75.70
69895;DHT22;57172;52.034;5.090;2023-03-23T10:12:55;16.70;77.20
69895;DHT22;57172;52.034;5.090;2023-03-23T10:15:34;17.00;69.20
69895;DHT22;57172;52.034;5.090;2023-03-23T10:18:12;16.90;67.30
69895;DHT22;57172;52.034;5.090;2023-03-23T10:20:57;16.80;66.70
69895;DHT22;57172;52.034;5.090;2023-03-23T10:23:33;16.70;67.60
69895;DHT22;57172;52.034;5.090;2023-03-23T10:26:21;16.70;67.90
69895;DHT22;57172;52.034;5.090;2023-03-23T10:28:55;16.50;67.00
69895;DHT22;57172;52.034;5.090;2023-03-23T10:31:27;16.70;72.80
69895;DHT22;57172;52.034;5.090;2023-03-23T10:33:57;17.00;76.10
69895;DHT22;57172;52.034;5.090;2023-03-23T10:36:26;17.30;73.30
69895;DHT22;57172;52.034;5.090;2023-03-23T10:38:57;17.80;78.60
69895;DHT22;57172;52.034;5.090;2023-03-23T10:41:23;18.40;78.10
69895;DHT22;57172;52.034;5.090;2023-03-23T10:43:49;19.00;73.00
69895;DHT22;57172;52.034;5.090;2023-03-23T10:46:25;19.40;69.80
69895;DHT22;57172;52.034;5.090;2023-03-23T10:48:53;19.50;67.20
69895;DHT22;57172;52.034;5.090;2023-03-23T10:51:33;19.70;69.60
69895;DHT22;57172;52.034;5.090;2023-03-23T10:54:02;19.60;62.90
69895;DHT22;57172;52.034;5.090;2023-03-23T10:56:43;19.20;60.80
69895;DHT22;57172;52.034;5.090;2023-03-23T10:59:25;19.20;66.70
69895;DHT22;57172;52.034;5.090;2023-03-23T11:01:54;19.50;65.80
69895;DHT22;57172;52.034;5.090;2023-03-23T11:04:22;19.30;60.30
69895;DHT22;57172;52.034;5.090;2023-03-23T11:06:51;18.80;59.40
69895;DHT22;57172;52.034;5.090;2023-03-23T11:09:20;18.30;61.30
69895;DHT22;57172;52.034;5.090;2023-03-23T11:11:54;18.00;61.20
69895;DHT22;57172;52.034;5.090;2023-03-23T11:14:35;18.10;68.50
69895;DHT22;57172;52.034;5.090;2023-03-23T11:17:18;18.60;67.60
69895;DHT22;57172;52.034;5.090;2023-03-23T11:19:45;18.90;67.60
69895;DHT22;57172;52.034;5.090;2023-03-23T11:22:27;19.30;69.90
69895;DHT22;57172;52.034;5.090;2023-03-23T11:24:59;19.60;68.60
69895;DHT22;57172;52.034;5.090;2023-03-23T11:27:27;19.40;63.30
69895;DHT22;57172;52.034;5.090;2023-03-23T11:29:54;19.20;66.70
69895;DHT22;57172;52.034;5.090;2023-03-23T11:32:26;19.40;68.90
69895;DHT22;57172;52.034;5.090;2023-03-23T11:34:57;19.20;63.30
69895;DHT22;57172;52.034;5.090;2023-03-23T11:37:35;18.80;64.00
69895;DHT22;57172;52.034;5.090;2023-03-23T11:40:18;18.30;61.50
69895;DHT22;57172;52.034;5.090;2023-03-23T11:42:49;17.80;61.80
69895;DHT22;57172;52.034;5.090;2023-03-23T11:45:25;17.20;62.80
69895;DHT22;57172;52.034;5.090;2023-03-23T11:48:15;16.50;65.90
69895;DHT22;57172;52.034;5.090;2023-03-23T11:50:51;16.00;67.10
69895;DHT22;57172;52.034;5.090;2023-03-23T11:58:18;16.00;78.60
69895;DHT22;57172;52.034;5.090;2023-03-23T12:01:17;16.90;84.20
69895;DHT22;57172;52.034;5.090;2023-03-23T12:12:40;17.30;68.20
69895;DHT22;57172;52.034;5.090;2023-03-23T12:15:39;17.00;67.30
69895;DHT22;57172;52.034;5.090;2023-03-23T12:18:37;16.60;66.30
69895;DHT22;57172;52.034;5.090;2023-03-23T12:24:00;16.00;65.30
69895;DHT22;57172;52.034;5.090;2023-03-23T12:26:35;15.90;68.30
69895;DHT22;57172;52.034;5.090;2023-03-23T12:29:25;15.90;68.10
69895;DHT22;57172;52.034;5.090;2023-03-23T12:42:40;18.60;67.60
69895;DHT22;57172;52.034;5.090;2023-03-23T12:48:24;19.70;63.90
69895;DHT22;57172;52.034;5.090;2023-03-23T12:53:31;18.90;59.70
69895;DHT22;57172;52.034;5.090;2023-03-23T12:56:23;18.40;59.60
69895;DHT22;57172;52.034;5.090;2023-03-23T12:58:54;18.10;60.30
69895;DHT22;57172;52.034;5.090;2023-03-23T13:01:29;18.10;65.40
69895;DHT22;57172;52.034;5.090;2023-03-23T13:03:59;18.60;66.00
69895;DHT22;57172;52.034;5.090;2023-03-23T13:09:09;19.80;69.70
69895;DHT22;57172;52.034;5.090;2023-03-23T13:11:40;20.30;67.50
69895;DHT22;57172;52.034;5.090;2023-03-23T13:17:13;21.00;67.20
69895;DHT22;57172;52.034;5.090;2023-03-23T13:22:31;19.80;60.80
69895;DHT22;57172;52.034;5.090;2023-03-23T13:25:03;19.30;57.70
69895;DHT22;57172;52.034;5.090;2023-03-23T13:27:31;18.70;59.40
69895;DHT22;57172;52.034;5.090;2023-03-23T13:29:57;18.20;61.10
69895;DHT22;57172;52.034;5.090;2023-03-23T13:34:56;17.70;62.90
69895;DHT22;57172;52.034;5.090;2023-03-23T13:37:24;17.50;64.70
69895;DHT22;57172;52.034;5.090;2023-03-23T13:42:50;17.20;61.80
69895;DHT22;57172;52.034;5.090;2023-03-23T13:47:48;16.80;63.50
69895;DHT22;57172;52.034;5.090;2023-03-23T14:06:17;13.40;80.50
69895;DHT22;57172;52.034;5.090;2023-03-23T14:09:30;13.80;86.00
69895;DHT22;57172;52.034;5.090;2023-03-23T14:12:01;14.60;88.50
69895;DHT22;57172;52.034;5.090;2023-03-23T14:14:40;15.20;85.90
69895;DHT22;57172;52.034;5.090;2023-03-23T14:19:38;16.20;81.00
69895;DHT22;57172;52.034;5.090;2023-03-23T14:22:19;16.60;82.00
69895;DHT22;57172;52.034;5.090;2023-03-23T14:24:44;17.00;80.20
69895;DHT22;57172;52.034;5.090;2023-03-23T14:27:14;17.50;78.70
69895;DHT22;57172;52.034;5.090;2023-03-23T14:29:41;17.60;71.90
69895;DHT22;57172;52.034;5.090;2023-03-23T14:32:10;17.60;72.30
69895;DHT22;57172;52.034;5.090;2023-03-23T14:34:38;17.60;73.50
69895;DHT22;57172;52.034;5.090;2023-03-23T14:37:04;17.80;70.80
69895;DHT22;57172;52.034;5.090;2023-03-23T14:39:36;17.90;75.90
69895;DHT22;57172;52.034;5.090;2023-03-23T14:42:05;18.20;69.70
69895;DHT22;57172;52.034;5.090;2023-03-23T14:44:37;18.30;66.50
69895;DHT22;57172;52.034;5.090;2023-03-23T14:47:09;18.30;68.00
69895;DHT22;57172;52.034;5.090;2023-03-23T14:49:38;18.40;64.10
69895;DHT22;57172;52.034;5.090;2023-03-23T14:52:12;18.50;67.50
69895;DHT22;57172;52.034;5.090;2023-03-23T14:54:39;18.60;66.80
69895;DHT22;57172;52.034;5.090;2023-03-23T14:59:50;18.80;69.40
69895;DHT22;57172;52.034;5.090;2023-03-23T15:02:29;19.10;70.30
69895;DHT22;57172;52.034;5.090;2023-03-23T15:05:42;19.40;68.20
69895;DHT22;57172;52.034;5.090;2023-03-23T15:07:52;19.50;67.90
69895;DHT22;57172;52.034;5.090;2023-03-23T15:10:20;19.40;66.30
69895;DHT22;57172;52.034;5.090;2023-03-23T15:12:48;19.30;68.90
69895;DHT22;57172;52.034;5.090;2023-03-23T15:15:29;19.30;67.10
69895;DHT22;57172;52.034;5.090;2023-03-23T15:17:56;19.00;63.10
69895;DHT22;57172;52.034;5.090;2023-03-23T15:22:55;18.60;66.80
69895;DHT22;57172;52.034;5.090;2023-03-23T15:25:32;18.50;66.80
69895;DHT22;57172;52.034;5.090;2023-03-23T15:30:53;18.30;66.30
69895;DHT22;57172;52.034;5.090;2023-03-23T15:33:18;18.10;65.60
69895;DHT22;57172;52.034;5.090;2023-03-23T15:35:50;17.90;63.50
69895;DHT22;57172;52.034;5.090;2023-03-23T15:38:29;17.80;65.90
69895;DHT22;57172;52.034;5.090;2023-03-23T15:41:05;17.70;67.10
69895;DHT22;57172;52.034;5.090;2023-03-23T15:43:48;17.60;65.10
69895;DHT22;57172;52.034;5.090;2023-03-23T15:51:22;17.30;65.30
69895;DHT22;57172;52.034;5.090;2023-03-23T15:53:50;17.30;67.10
69895;DHT22;57172;52.034;5.090;2023-03-23T15:56:17;17.30;69.10
69895;DHT22;57172;52.034;5.090;2023-03-23T15:58:44;17.40;66.90
69895;DHT22;57172;52.034;5.090;2023-03-23T16:01:18;17.50;67.70
69895;DHT22;57172;52.034;5.090;2023-03-23T16:06:23;17.50;65.90
69895;DHT22;57172;52.034;5.090;2023-03-23T16:08:53;17.50;66.50
69895;DHT22;57172;52.034;5.090;2023-03-23T16:11:21;17.50;69.20
69895;DHT22;57172;52.034;5.090;2023-03-23T16:13:49;17.60;68.40
69895;DHT22;57172;52.034;5.090;2023-03-23T16:16:20;17.60;66.80
69895;DHT22;57172;52.034;5.090;2023-03-23T16:18:48;17.50;67.10
69895;DHT22;57172;52.034;5.090;2023-03-23T16:21:15;17.50;67.60
69895;DHT22;57172;52.034;5.090;2023-03-23T16:23:42;17.50;67.80
69895;DHT22;57172;52.034;5.090;2023-03-23T16:26:13;17.40;68.60
69895;DHT22;57172;52.034;5.090;2023-03-23T16:28:41;17.30;67.30
69895;DHT22;57172;52.034;5.090;2023-03-23T16:31:08;17.20;68.20
69895;DHT22;57172;52.034;5.090;2023-03-23T16:33:36;17.10;68.10
69895;DHT22;57172;52.034;5.090;2023-03-23T16:36:04;17.00;68.90
69895;DHT22;57172;52.034;5.090;2023-03-23T16:38:31;16.90;67.30
69895;DHT22;57172;52.034;5.090;2023-03-23T16:40:58;16.90;69.20
69895;DHT22;57172;52.034;5.090;2023-03-23T16:43:25;16.80;70.20
69895;DHT22;57172;52.034;5.090;2023-03-23T16:45:55;16.80;69.20
69895;DHT22;57172;52.034;5.090;2023-03-23T16:48:23;16.80;69.00
69895;DHT22;57172;52.034;5.090;2023-03-23T16:50:51;16.70;66.90
69895;DHT22;57172;52.034;5.090;2023-03-23T16:53:19;16.60;66.80
69895;DHT22;57172;52.034;5.090;2023-03-23T16:55:46;16.60;66.60
69895;DHT22;57172;52.034;5.090;2023-03-23T16:58:15;16.50;67.40
69895;DHT22;57172;52.034;5.090;2023-03-23T17:00:47;16.50;68.80
69895;DHT22;57172;52.034;5.090;2023-03-23T17:03:15;16.40;67.80
69895;DHT22;57172;52.034;5.090;2023-03-23T17:05:43;16.40;68.90
69895;DHT22;57172;52.034;5.090;2023-03-23T17:08:11;16.50;69.70
69895;DHT22;57172;52.034;5.090;2023-03-23T17:10:39;16.40;67.70
69895;DHT22;57172;52.034;5.090;2023-03-23T17:13:06;16.40;68.00
69895;DHT22;57172;52.034;5.090;2023-03-23T17:15:36;16.30;69.00
69895;DHT22;57172;52.034;5.090;2023-03-23T17:18:04;16.30;69.40
69895;DHT22;57172;52.034;5.090;2023-03-23T17:20:30;16.20;69.30
69895;DHT22;57172;52.034;5.090;2023-03-23T17:22:57;16.20;68.40
69895;DHT22;57172;52.034;5.090;2023-03-23T17:25:26;16.10;70.80
69895;DHT22;57172;52.034;5.090;2023-03-23T17:27:57;16.10;67.80
69895;DHT22;57172;52.034;5.090;2023-03-23T17:30:33;16.00;68.10
69895;DHT22;57172;52.034;5.090;2023-03-23T17:33:00;15.90;68.70
69895;DHT22;57172;52.034;5.090;2023-03-23T17:35:27;15.80;69.30
69895;DHT22;57172;52.034;5.090;2023-03-23T17:37:54;15.80;68.60
69895;DHT22;57172;52.034;5.090;2023-03-23T17:40:21;15.70;68.90
69895;DHT22;57172;52.034;5.090;2023-03-23T17:42:48;15.70;68.30
69895;DHT22;57172;52.034;5.090;2023-03-23T17:45:15;15.60;69.60
69895;DHT22;57172;52.034;5.090;2023-03-23T17:47:42;15.60;68.90
69895;DHT22;57172;52.034;5.090;2023-03-23T17:50:09;15.60;70.00
69895;DHT22;57172;52.034;5.090;2023-03-23T17:52:39;15.50;70.10
69895;DHT22;57172;52.034;5.090;2023-03-23T17:55:07;15.50;68.00
69895;DHT22;57172;52.034;5.090;2023-03-23T17:57:34;15.50;70.60